createdAt,value
2023-05-07T00:01:52.885Z,88.19
2023-05-07T00:03:56.303Z,89.59
2023-05-07T00:05:59.753Z,88.76
2023-05-07T00:08:02.894Z,88.59
2023-05-07T00:10:07.568Z,89.52
2023-05-07T00:12:12.293Z,88.63
2023-05-07T00:14:15.483Z,89.15
2023-05-07T00:16:18.704Z,90.23
2023-05-07T00:18:23.664Z,89.28
2023-05-07T00:20:27.494Z,90.22
2023-05-07T00:22:31.254Z,88.98
2023-05-07T00:24:34.407Z,88.98
2023-05-07T00:26:37.637Z,90.44
2023-05-07T00:28:42.253Z,89.01
2023-05-07T00:30:45.534Z,90.21
2023-05-07T00:32:50.103Z,89.67
2023-05-07T00:34:53.438Z,90.79
2023-05-07T00:36:56.455Z,89.73
2023-05-07T00:39:03.151Z,90.42
2023-05-07T00:41:06.593Z,90.40
2023-05-07T00:43:09.930Z,90.42
2023-05-07T00:45:14.453Z,89.25
2023-05-07T00:47:17.771Z,90.17
2023-05-07T00:49:20.944Z,88.97
2023-05-07T00:51:24.184Z,88.96
2023-05-07T00:53:27.698Z,88.53
2023-05-07T00:55:30.948Z,89.10
2023-05-07T00:57:35.643Z,89.60
2023-05-07T00:59:39.058Z,90.05
2023-05-07T01:01:43.846Z,88.57
2023-05-07T01:03:47.696Z,89.69
2023-05-07T01:05:52.215Z,88.35
2023-05-07T01:07:57.062Z,87.54
2023-05-07T01:10:00.798Z,87.17
2023-05-07T01:12:05.845Z,88.17
2023-05-07T01:14:09.661Z,87.91
2023-05-07T01:16:13.220Z,87.64
2023-05-07T01:18:18.593Z,88.16
2023-05-07T01:20:22.641Z,88.78
2023-05-07T01:22:33.208Z,90.18
2023-05-07T01:24:38.821Z,88.37
2023-05-07T01:26:44.823Z,89.26
2023-05-07T01:28:51.327Z,88.16
2023-05-07T01:30:57.649Z,89.69
2023-05-07T01:33:04.967Z,88.43
2023-05-07T01:35:13.653Z,89.02
2023-05-07T01:37:17.473Z,90.03
2023-05-07T01:39:22.526Z,90.53
2023-05-07T01:41:26.685Z,90.82
2023-05-07T01:43:30.773Z,90.68
2023-05-07T01:45:34.814Z,90.03
2023-05-07T01:47:38.847Z,89.24
2023-05-07T01:49:44.273Z,89.78
2023-05-07T01:51:48.480Z,89.91
2023-05-07T01:53:53.136Z,89.74
2023-05-07T01:55:58.903Z,89.95
2023-05-07T01:58:02.697Z,90.54
2023-05-07T02:00:07.805Z,91.10
2023-05-07T02:02:18.947Z,90.54
2023-05-07T02:04:24.322Z,89.87
2023-05-07T02:06:28.567Z,90.82
2023-05-07T02:08:37.164Z,90.83
2023-05-07T02:10:41.405Z,91.53
2023-05-07T02:12:46.478Z,90.55
2023-05-07T02:14:50.316Z,91.16
2023-05-07T02:16:53.961Z,91.45
2023-05-07T02:18:57.732Z,91.11
2023-05-07T02:21:01.353Z,91.41
2023-05-07T02:23:05.085Z,90.53
2023-05-07T02:25:09.393Z,90.36
2023-05-07T02:27:13.081Z,91.32
2023-05-07T02:29:19.064Z,90.35
2023-05-07T02:31:22.784Z,90.88
2023-05-07T02:33:26.685Z,91.80
2023-05-07T02:35:30.826Z,91.18
2023-05-07T02:37:34.400Z,90.61
2023-05-07T02:39:38.436Z,90.39
2023-05-07T02:41:42.191Z,90.81
2023-05-07T02:43:46.161Z,91.44
2023-05-07T02:45:51.487Z,90.91
2023-05-07T02:47:56.201Z,90.77
2023-05-07T02:49:59.815Z,91.05
2023-05-07T02:52:04.783Z,91.38
2023-05-07T02:54:08.460Z,91.10
2023-05-07T02:56:12.243Z,91.23
2023-05-07T02:58:16.510Z,91.05
2023-05-07T03:00:21.253Z,90.91
2023-05-07T03:02:46.160Z,91.40
2023-05-07T03:04:49.884Z,91.32
2023-05-07T03:06:52.935Z,91.39
2023-05-07T03:08:55.968Z,91.19
2023-05-07T03:10:59.033Z,91.65
2023-05-07T03:13:03.696Z,91.50
2023-05-07T03:15:07.701Z,91.78
2023-05-07T03:17:11.031Z,91.26
2023-05-07T03:19:15.421Z,91.98
2023-05-07T03:21:18.621Z,91.47
2023-05-07T03:23:24.087Z,91.80
2023-05-07T03:25:27.942Z,91.50
2023-05-07T03:27:30.996Z,91.93
2023-05-07T03:29:34.143Z,91.91
2023-05-07T03:31:37.264Z,91.99
2023-05-07T03:33:52.569Z,92.04
2023-05-07T03:35:57.045Z,92.27
2023-05-07T03:38:03.340Z,91.81
2023-05-07T03:40:11.766Z,92.06
2023-05-07T03:42:23.064Z,91.92
2023-05-07T03:44:28.336Z,92.08
2023-05-07T03:46:31.593Z,92.07
2023-05-07T03:48:34.742Z,92.10
2023-05-07T03:50:38.990Z,92.06
2023-05-07T03:52:44.569Z,92.16
2023-05-07T03:54:48.133Z,92.20
2023-05-07T03:56:52.355Z,92.05
2023-05-07T03:58:55.576Z,92.20
2023-05-07T04:00:58.782Z,91.79
2023-05-07T04:03:05.572Z,92.01
2023-05-07T04:05:09.525Z,92.25
2023-05-07T04:07:16.091Z,92.68
2023-05-07T04:09:23.022Z,92.83
2023-05-07T04:11:26.147Z,93.03
2023-05-07T04:13:29.576Z,93.16
2023-05-07T04:15:32.806Z,93.08
2023-05-07T04:17:36.082Z,92.83
2023-05-07T04:19:39.563Z,92.60
2023-05-07T04:21:42.870Z,92.45
2023-05-07T04:23:46.293Z,91.44
2023-05-07T04:25:52.401Z,92.45
2023-05-07T04:28:00.312Z,92.69
2023-05-07T04:30:07.720Z,92.70
2023-05-07T04:32:14.901Z,92.55
2023-05-07T04:34:18.909Z,92.78
2023-05-07T04:36:22.460Z,92.98
2023-05-07T04:38:35.144Z,91.98
2023-05-07T04:40:39.974Z,91.91
2023-05-07T04:42:46.638Z,93.26
2023-05-07T04:44:50.118Z,92.46
2023-05-07T04:46:53.514Z,93.17
2023-05-07T04:48:56.768Z,93.49
2023-05-07T04:51:00.374Z,93.54
2023-05-07T04:53:04.039Z,93.56
2023-05-07T04:55:08.096Z,92.75
2023-05-07T04:57:14.619Z,92.59
2023-05-07T04:59:19.722Z,92.03
2023-05-07T05:01:23.490Z,91.88
2023-05-07T05:03:26.825Z,91.50
2023-05-07T05:05:30.194Z,91.53
2023-05-07T05:07:33.647Z,91.02
2023-05-07T05:09:37.128Z,90.66
2023-05-07T05:11:41.110Z,91.61
2023-05-07T05:13:44.238Z,90.72
2023-05-07T05:15:54.591Z,91.78
2023-05-07T05:17:57.877Z,91.16
2023-05-07T05:20:04.832Z,91.98
2023-05-07T05:22:08.124Z,91.56
2023-05-07T05:24:11.287Z,91.36
2023-05-07T05:26:15.491Z,90.18
2023-05-07T05:28:18.589Z,91.28
2023-05-07T05:30:23.246Z,89.94
2023-05-07T05:32:28.060Z,89.86
2023-05-07T05:34:34.141Z,89.95
2023-05-07T05:36:37.565Z,89.01
2023-05-07T05:38:40.977Z,90.18
2023-05-07T05:40:45.168Z,89.08
2023-05-07T05:42:48.413Z,88.19
2023-05-07T05:44:52.353Z,88.34
2023-05-07T05:46:58.611Z,87.37
2023-05-07T05:49:03.190Z,87.36
2023-05-07T05:51:07.879Z,86.68
2023-05-07T05:53:11.280Z,85.27
2023-05-07T05:55:15.276Z,83.28
2023-05-07T05:57:18.569Z,82.46
2023-05-07T05:59:22.447Z,84.31
2023-05-07T06:01:26.044Z,83.17
2023-05-07T06:03:31.090Z,81.53
2023-05-07T06:05:38.617Z,80.18
2023-05-07T06:07:42.297Z,79.92
2023-05-07T06:09:45.766Z,78.67
2023-05-07T06:11:49.338Z,78.23
2023-05-07T06:13:52.419Z,77.31
2023-05-07T06:15:55.771Z,77.90
2023-05-07T06:17:58.899Z,77.30
2023-05-07T06:20:02.106Z,76.79
2023-05-07T06:22:06.625Z,77.27
2023-05-07T06:24:11.394Z,77.44
2023-05-07T06:26:16.040Z,77.13
2023-05-07T06:28:23.116Z,76.66
2023-05-07T06:30:27.748Z,75.96
2023-05-07T06:32:31.982Z,74.34
2023-05-07T06:34:35.230Z,74.10
2023-05-07T06:36:38.492Z,74.15
2023-05-07T06:38:51.907Z,73.54
2023-05-07T06:40:56.919Z,72.60
2023-05-07T06:43:00.240Z,71.84
2023-05-07T06:45:24.944Z,72.18
2023-05-07T06:47:30.159Z,72.37
2023-05-07T06:49:33.587Z,72.26
2023-05-07T06:51:36.646Z,72.63
2023-05-07T06:53:40.558Z,72.60
2023-05-07T06:55:47.808Z,69.75
2023-05-07T06:57:53.112Z,70.26
2023-05-07T06:59:58.162Z,75.59
2023-05-07T07:02:01.351Z,73.12
2023-05-07T07:04:04.864Z,70.35
2023-05-07T07:06:08.567Z,69.54
2023-05-07T07:08:11.913Z,71.61
2023-05-07T07:10:15.737Z,72.08
2023-05-07T07:12:20.316Z,71.35
2023-05-07T07:14:24.052Z,70.84
2023-05-07T07:16:28.939Z,70.52
2023-05-07T07:18:32.310Z,69.48
2023-05-07T07:20:35.895Z,69.77
2023-05-07T07:22:40.055Z,72.31
2023-05-07T07:24:43.724Z,69.08
2023-05-07T07:26:49.569Z,71.22
2023-05-07T07:28:54.553Z,68.71
2023-05-07T07:30:59.211Z,67.94
2023-05-07T07:33:04.301Z,67.76
2023-05-07T07:35:11.376Z,67.78
2023-05-07T07:37:15.656Z,65.92
2023-05-07T07:39:19.208Z,65.01
2023-05-07T07:41:24.388Z,65.07
2023-05-07T07:43:27.839Z,64.89
2023-05-07T07:45:32.906Z,66.68
2023-05-07T07:47:37.445Z,69.09
2023-05-07T07:49:40.643Z,68.49
2023-05-07T07:51:45.905Z,67.82
2023-05-07T07:53:50.278Z,67.48
2023-05-07T07:55:59.197Z,68.05
2023-05-07T07:58:05.653Z,67.79
2023-05-07T08:00:10.527Z,67.78
2023-05-07T08:02:21.454Z,67.47
2023-05-07T08:04:26.424Z,67.71
2023-05-07T08:06:32.030Z,67.29
2023-05-07T08:08:35.089Z,66.74
2023-05-07T08:10:40.135Z,66.94
2023-05-07T08:12:50.706Z,67.52
2023-05-07T08:14:53.996Z,66.09
2023-05-07T08:16:57.348Z,65.67
2023-05-07T08:19:02.097Z,67.31
2023-05-07T08:21:05.972Z,68.71
2023-05-07T08:23:09.658Z,72.00
2023-05-07T08:25:14.914Z,72.58
2023-05-07T08:27:18.191Z,72.20
2023-05-07T08:29:21.224Z,72.18
2023-05-07T08:31:24.576Z,73.13
2023-05-07T08:33:27.823Z,72.77
2023-05-07T08:35:32.388Z,72.23
2023-05-07T08:37:35.601Z,72.50
2023-05-07T08:39:39.122Z,67.22
2023-05-07T08:41:48.124Z,66.44
2023-05-07T08:43:51.990Z,67.42
2023-05-07T08:45:57.044Z,66.85
2023-05-07T08:48:05.797Z,67.50
2023-05-07T08:50:12.928Z,67.28
2023-05-07T08:52:18.223Z,68.69
2023-05-07T08:54:22.781Z,65.52
2023-05-07T08:56:26.115Z,63.95
2023-05-07T08:58:31.044Z,65.10
2023-05-07T09:00:34.782Z,65.49
2023-05-07T09:02:39.181Z,68.52
2023-05-07T09:04:44.931Z,65.12
2023-05-07T09:06:49.091Z,67.70
2023-05-07T09:08:54.521Z,66.89
2023-05-07T09:10:59.985Z,67.78
2023-05-07T09:13:03.210Z,67.60
2023-05-07T09:15:08.270Z,64.54
2023-05-07T09:17:12.011Z,65.53
2023-05-07T09:19:15.273Z,67.07
2023-05-07T09:21:23.822Z,65.71
2023-05-07T09:23:28.395Z,65.94
2023-05-07T09:25:33.758Z,66.53
2023-05-07T09:27:43.746Z,64.98
2023-05-07T09:29:47.073Z,66.93
2023-05-07T09:31:52.077Z,65.77
2023-05-07T09:33:56.975Z,68.21
2023-05-07T09:36:05.073Z,62.88
2023-05-07T09:38:10.156Z,61.77
2023-05-07T09:40:22.912Z,61.30
2023-05-07T09:42:28.388Z,60.53
2023-05-07T09:44:36.125Z,60.66
2023-05-07T09:46:41.575Z,60.56
2023-05-07T09:48:55.044Z,59.54
2023-05-07T09:50:59.844Z,59.20
2023-05-07T09:53:06.929Z,59.40
2023-05-07T09:55:11.547Z,59.72
2023-05-07T09:57:15.836Z,63.14
2023-05-07T09:59:23.985Z,61.48
2023-05-07T10:01:27.692Z,60.42
2023-05-07T10:03:33.352Z,58.89
2023-05-07T10:05:41.375Z,57.98
2023-05-07T10:07:45.547Z,58.75
2023-05-07T10:09:49.130Z,57.33
2023-05-07T10:12:01.684Z,59.37
2023-05-07T10:14:07.497Z,58.30
2023-05-07T10:16:12.747Z,58.00
2023-05-07T10:18:23.574Z,58.98
2023-05-07T10:20:28.304Z,58.32
2023-05-07T10:22:35.069Z,58.34
2023-05-07T10:24:39.279Z,57.74
2023-05-07T10:26:50.807Z,60.51
2023-05-07T10:29:00.414Z,63.32
2023-05-07T10:31:20.874Z,60.87
2023-05-07T10:33:28.496Z,57.85
2023-05-07T10:35:36.962Z,57.49
2023-05-07T10:37:40.594Z,57.79
2023-05-07T10:39:43.767Z,58.77
2023-05-07T10:41:47.277Z,57.99
2023-05-07T10:43:50.391Z,57.42
2023-05-07T10:46:16.490Z,59.32
2023-05-07T10:48:29.411Z,58.75
2023-05-07T10:50:39.383Z,60.43
2023-05-07T10:52:43.243Z,58.38
2023-05-07T10:55:26.589Z,59.60
2023-05-07T10:57:53.095Z,60.10
2023-05-07T11:00:01.976Z,60.83
2023-05-07T11:02:12.180Z,60.61
2023-05-07T11:04:27.674Z,58.68
2023-05-07T11:07:27.976Z,58.48
2023-05-07T11:09:56.976Z,58.05
2023-05-07T11:12:11.741Z,58.04
2023-05-07T11:14:45.950Z,59.46
2023-05-07T11:17:11.946Z,58.19
2023-05-07T11:19:16.243Z,57.02
2023-05-07T11:21:39.344Z,59.74
2023-05-07T11:24:00.913Z,59.29
2023-05-07T11:26:18.132Z,59.69
2023-05-07T11:28:22.059Z,61.02
2023-05-07T11:30:35.660Z,60.25
2023-05-07T11:32:40.108Z,59.33
2023-05-07T11:34:43.352Z,58.62
2023-05-07T11:36:47.936Z,59.41
2023-05-07T11:38:54.283Z,58.88
2023-05-07T11:40:59.994Z,59.20
2023-05-07T11:43:12.694Z,59.11
2023-05-07T11:45:25.582Z,58.41
2023-05-07T11:47:28.630Z,59.22
2023-05-07T11:49:32.392Z,58.92
2023-05-07T11:51:35.629Z,59.88
2023-05-07T11:53:41.844Z,60.05
2023-05-07T11:55:44.981Z,60.62
2023-05-07T11:57:48.132Z,60.20
2023-05-07T11:59:55.387Z,60.48
2023-05-07T12:02:00.249Z,59.90
2023-05-07T12:04:06.300Z,60.19
2023-05-07T12:06:09.955Z,59.36
2023-05-07T12:08:16.900Z,60.48
2023-05-07T12:10:22.461Z,60.22
2023-05-07T12:12:25.986Z,58.86
2023-05-07T12:14:29.993Z,59.28
2023-05-07T12:16:33.213Z,60.00
2023-05-07T12:18:37.887Z,61.05
2023-05-07T12:20:41.513Z,61.58
2023-05-07T12:22:44.908Z,58.48
2023-05-07T12:24:49.197Z,59.15
2023-05-07T12:26:53.863Z,59.32
2023-05-07T12:28:57.168Z,59.29
2023-05-07T12:31:00.511Z,60.01
2023-05-07T12:33:03.746Z,60.27
2023-05-07T12:35:08.919Z,59.71
2023-05-07T12:37:12.302Z,59.76
2023-05-07T12:39:15.698Z,59.57
2023-05-07T12:41:19.354Z,60.18
2023-05-07T12:43:26.319Z,62.14
2023-05-07T12:45:29.485Z,62.14
2023-05-07T12:47:33.406Z,62.60
2023-05-07T12:49:38.671Z,64.08
2023-05-07T12:51:42.007Z,65.16
2023-05-07T12:53:45.554Z,63.74
2023-05-07T12:55:50.218Z,66.23
2023-05-07T12:57:54.241Z,65.87
2023-05-07T13:00:00.168Z,66.41
2023-05-07T13:02:03.511Z,65.55
2023-05-07T13:04:07.012Z,64.98
2023-05-07T13:06:13.288Z,65.10
2023-05-07T13:08:26.253Z,64.56
2023-05-07T13:10:29.741Z,65.26
2023-05-07T13:12:33.025Z,66.42
2023-05-07T13:14:36.423Z,66.77
2023-05-07T13:16:40.915Z,71.75
2023-05-07T13:18:46.547Z,71.82
2023-05-07T13:20:49.962Z,75.15
2023-05-07T13:22:53.078Z,77.32
2023-05-07T13:24:56.245Z,78.62
2023-05-07T13:26:59.568Z,80.65
2023-05-07T13:29:02.726Z,80.32
2023-05-07T13:31:05.853Z,80.27
2023-05-07T13:33:10.565Z,80.03
2023-05-07T13:35:13.845Z,80.82
2023-05-07T13:37:17.111Z,81.90
2023-05-07T13:39:20.226Z,78.73
2023-05-07T13:41:23.335Z,78.22
2023-05-07T13:43:26.820Z,79.03
2023-05-07T13:45:30.615Z,79.68
2023-05-07T13:47:33.941Z,78.09
2023-05-07T13:49:38.591Z,78.02
2023-05-07T13:51:41.825Z,79.91
2023-05-07T13:53:44.991Z,82.23
2023-05-07T13:55:48.425Z,83.47
2023-05-07T13:57:57.172Z,84.23
2023-05-07T14:00:00.361Z,82.54
2023-05-07T14:02:03.436Z,83.64
2023-05-07T14:04:06.683Z,84.62
2023-05-07T14:06:11.072Z,85.83
2023-05-07T14:08:14.970Z,86.69
2023-05-07T14:10:18.257Z,86.20
2023-05-07T14:12:21.574Z,84.73
2023-05-07T14:14:24.688Z,85.28
2023-05-07T14:16:27.770Z,85.41
2023-05-07T14:18:30.983Z,86.32
2023-05-07T14:20:34.019Z,87.23
2023-05-07T14:22:38.583Z,87.95
2023-05-07T14:24:41.709Z,87.06
2023-05-07T14:26:46.214Z,88.58
2023-05-07T14:28:49.330Z,87.99
2023-05-07T14:30:52.468Z,87.58
2023-05-07T14:32:55.869Z,87.13
2023-05-07T14:34:59.039Z,87.49
2023-05-07T14:37:02.544Z,87.27
2023-05-07T14:39:07.075Z,87.52
2023-05-07T14:41:10.467Z,89.81
2023-05-07T14:43:13.768Z,90.60
2023-05-07T14:45:17.051Z,90.56
2023-05-07T14:47:27.609Z,90.55
2023-05-07T14:49:32.896Z,91.02
2023-05-07T14:51:36.010Z,91.11
2023-05-07T14:53:39.170Z,91.32
2023-05-07T14:55:43.990Z,92.88
2023-05-07T14:57:47.184Z,92.89
2023-05-07T14:59:50.316Z,90.82
2023-05-07T15:01:53.590Z,91.66
2023-05-07T15:03:57.196Z,93.23
2023-05-07T15:06:00.563Z,93.93
2023-05-07T15:08:03.667Z,92.46
2023-05-07T15:10:07.989Z,92.86
2023-05-07T15:12:13.142Z,93.09
2023-05-07T15:14:16.204Z,95.04
2023-05-07T15:16:20.439Z,92.70
2023-05-07T15:18:23.627Z,91.52
2023-05-07T15:20:26.764Z,92.59
2023-05-07T15:22:29.943Z,91.37
2023-05-07T15:24:33.501Z,90.50
2023-05-07T15:26:36.600Z,91.33
2023-05-07T15:28:41.368Z,91.51
2023-05-07T15:30:44.623Z,93.16
2023-05-07T15:32:48.531Z,93.65
2023-05-07T15:34:51.540Z,92.46
2023-05-07T15:36:54.413Z,91.28
2023-05-07T15:38:57.371Z,91.31
2023-05-07T15:41:00.614Z,90.70
2023-05-07T15:43:03.786Z,91.66
2023-05-07T15:45:10.877Z,93.93
2023-05-07T15:47:15.196Z,92.30
2023-05-07T15:49:18.551Z,92.52
2023-05-07T15:51:22.818Z,93.62
2023-05-07T15:53:25.960Z,93.32
2023-05-07T15:55:29.114Z,94.26
2023-05-07T15:57:32.498Z,95.80
2023-05-07T15:59:36.348Z,95.71
2023-05-07T16:01:42.481Z,94.94
2023-05-07T16:03:46.450Z,95.26
2023-05-07T16:05:49.811Z,96.84
2023-05-07T16:07:53.010Z,96.53
2023-05-07T16:09:56.112Z,96.89
2023-05-07T16:11:59.236Z,95.13
2023-05-07T16:14:02.487Z,96.18
2023-05-07T16:16:06.577Z,95.09
2023-05-07T16:18:12.175Z,94.45
2023-05-07T16:20:16.824Z,95.44
2023-05-07T16:22:20.290Z,96.34
2023-05-07T16:24:23.354Z,95.05
2023-05-07T16:26:26.881Z,96.98
2023-05-07T16:28:30.253Z,96.55
2023-05-07T16:30:33.491Z,97.53
2023-05-07T16:32:36.908Z,97.20
2023-05-07T16:34:41.616Z,96.64
2023-05-07T16:36:44.755Z,95.93
2023-05-07T16:38:48.105Z,97.37
2023-05-07T16:40:51.292Z,97.50
2023-05-07T16:42:55.701Z,98.37
2023-05-07T16:44:58.862Z,97.56
2023-05-07T16:47:02.001Z,97.92
2023-05-07T16:49:05.073Z,99.04
2023-05-07T16:51:09.624Z,98.55
2023-05-07T16:53:13.062Z,98.76
2023-05-07T16:55:16.333Z,99.56
2023-05-07T16:57:19.442Z,98.11
2023-05-07T16:59:23.230Z,98.64
2023-05-07T17:01:26.398Z,99.10
2023-05-07T17:03:32.073Z,97.93
2023-05-07T17:05:35.317Z,98.38
2023-05-07T17:07:39.813Z,97.13
2023-05-07T17:09:43.544Z,97.58
2023-05-07T17:11:46.689Z,98.00
2023-05-07T17:13:50.412Z,97.64
2023-05-07T17:15:53.506Z,97.22
2023-05-07T17:17:56.732Z,97.07
2023-05-07T17:20:00.113Z,96.89
2023-05-07T17:22:03.393Z,96.94
2023-05-07T17:24:09.678Z,97.36
2023-05-07T17:26:13.816Z,97.72
2023-05-07T17:28:17.031Z,97.71
2023-05-07T17:30:20.287Z,97.54
2023-05-07T17:32:23.406Z,98.06
2023-05-07T17:34:26.675Z,97.75
2023-05-07T17:36:29.792Z,98.29
2023-05-07T17:38:33.163Z,97.74
2023-05-07T17:40:53.859Z,96.80
2023-05-07T17:42:59.451Z,96.67
2023-05-07T17:45:02.803Z,96.95
2023-05-07T17:47:06.922Z,97.07
2023-05-07T17:49:10.078Z,98.04
2023-05-07T17:51:13.255Z,97.70
2023-05-07T17:53:16.395Z,97.72
2023-05-07T17:55:19.733Z,97.58
2023-05-07T17:57:24.265Z,96.60
2023-05-07T17:59:27.504Z,97.65
2023-05-07T18:01:30.937Z,97.53
2023-05-07T18:03:34.982Z,97.96
2023-05-07T18:05:39.601Z,98.12
2023-05-07T18:07:42.991Z,98.31
2023-05-07T18:09:46.213Z,98.72
2023-05-07T18:11:49.349Z,98.80
2023-05-07T18:13:53.915Z,98.91
2023-05-07T18:15:57.308Z,98.65
2023-05-07T18:18:00.849Z,99.20
2023-05-07T18:20:04.200Z,99.32
2023-05-07T18:22:07.479Z,99.19
2023-05-07T18:24:11.104Z,99.65
2023-05-07T18:26:14.303Z,99.68
2023-05-07T18:28:17.388Z,99.91
2023-05-07T18:30:23.271Z,100.00
2023-05-07T18:32:26.540Z,100.00
2023-05-07T18:34:29.824Z,100.00
2023-05-07T18:36:32.921Z,100.00
2023-05-07T18:38:36.114Z,100.00
2023-05-07T18:40:43.803Z,100.00
2023-05-07T18:42:46.885Z,99.96
2023-05-07T18:44:51.347Z,100.00
2023-05-07T18:46:55.826Z,100.00
2023-05-07T18:48:59.253Z,100.00
2023-05-07T18:51:02.360Z,99.75
2023-05-07T18:53:05.576Z,99.66
2023-05-07T18:55:10.749Z,99.88
2023-05-07T18:57:13.871Z,99.90
2023-05-07T18:59:17.377Z,99.43
2023-05-07T19:01:20.475Z,99.08
2023-05-07T19:03:25.012Z,98.90
2023-05-07T19:05:28.124Z,98.83
2023-05-07T19:07:31.801Z,98.47
2023-05-07T19:09:34.909Z,98.97
2023-05-07T19:11:38.052Z,99.08
2023-05-07T19:13:41.252Z,99.70
2023-05-07T19:15:44.740Z,99.53
2023-05-07T19:17:47.978Z,100.00
2023-05-07T19:19:52.591Z,99.72
2023-05-07T19:21:55.804Z,100.00
2023-05-07T19:23:58.924Z,99.83
2023-05-07T19:26:02.366Z,99.21
2023-05-07T19:28:05.574Z,99.46
2023-05-07T19:30:10.128Z,99.46
2023-05-07T19:32:13.325Z,98.56
2023-05-07T19:34:16.414Z,98.28
2023-05-07T19:36:21.492Z,97.86
2023-05-07T19:38:24.682Z,97.05
2023-05-07T19:40:27.895Z,96.62
2023-05-07T19:42:31.206Z,96.88
2023-05-07T19:44:36.857Z,96.55
2023-05-07T19:46:44.673Z,96.81
2023-05-07T19:48:48.114Z,96.73
2023-05-07T19:50:51.413Z,97.21
2023-05-07T19:52:56.032Z,96.99
2023-05-07T19:54:59.276Z,97.59
2023-05-07T19:57:03.242Z,97.74
2023-05-07T19:59:06.341Z,97.63
2023-05-07T20:01:09.533Z,97.83
2023-05-07T20:03:18.494Z,97.89
2023-05-07T20:05:22.332Z,98.26
2023-05-07T20:07:25.596Z,98.71
2023-05-07T20:09:30.283Z,98.58
2023-05-07T20:11:33.895Z,98.88
2023-05-07T20:13:37.183Z,98.04
2023-05-07T20:15:40.695Z,99.15
2023-05-07T20:17:44.490Z,100.00
2023-05-07T20:19:47.776Z,100.00
2023-05-07T20:21:51.016Z,100.00
2023-05-07T20:23:54.519Z,100.00
2023-05-07T20:25:59.521Z,100.00
2023-05-07T20:28:02.918Z,100.00
2023-05-07T20:30:07.259Z,100.00
2023-05-07T20:32:10.454Z,100.00
2023-05-07T20:34:13.614Z,100.00
2023-05-07T20:36:16.860Z,100.00
2023-05-07T20:38:20.470Z,100.00
2023-05-07T20:40:24.155Z,100.00
2023-05-07T20:42:29.560Z,100.00
2023-05-07T20:44:33.964Z,100.00
2023-05-07T20:46:38.431Z,100.00
2023-05-07T20:48:41.956Z,100.00
2023-05-07T20:50:45.376Z,100.00
2023-05-07T20:52:48.657Z,100.00
2023-05-07T20:54:51.996Z,100.00
2023-05-07T20:56:55.238Z,100.00
2023-05-07T20:58:59.829Z,100.00
2023-05-07T21:01:04.989Z,100.00
2023-05-07T21:03:08.479Z,100.00
2023-05-07T21:05:12.033Z,100.00
2023-05-07T21:07:15.251Z,100.00
2023-05-07T21:09:19.301Z,100.00
2023-05-07T21:11:22.781Z,100.00
2023-05-07T21:13:26.489Z,100.00
2023-05-07T21:15:31.446Z,100.00
2023-05-07T21:17:35.340Z,100.00
2023-05-07T21:19:40.352Z,100.00
2023-05-07T21:21:44.232Z,100.00
2023-05-07T21:23:47.697Z,100.00
2023-05-07T21:25:51.897Z,100.00
2023-05-07T21:27:55.296Z,100.00
2023-05-07T21:30:04.109Z,100.00
2023-05-07T21:32:10.104Z,100.00
2023-05-07T21:34:13.230Z,100.00
2023-05-07T21:36:16.441Z,100.00
2023-05-07T21:38:19.850Z,100.00
2023-05-07T21:40:23.009Z,100.00
2023-05-07T21:42:26.712Z,100.00
2023-05-07T21:44:30.133Z,100.00
2023-05-07T21:46:34.107Z,100.00
2023-05-07T21:48:39.417Z,100.00
2023-05-07T21:50:42.483Z,100.00
2023-05-07T21:52:45.702Z,100.00
2023-05-07T21:54:48.812Z,100.00
2023-05-07T21:56:52.098Z,100.00
2023-05-07T21:58:55.284Z,100.00
2023-05-07T22:00:58.457Z,100.00
2023-05-07T22:03:02.100Z,100.00
2023-05-07T22:05:07.391Z,100.00
2023-05-07T22:07:10.678Z,100.00
2023-05-07T22:09:14.073Z,100.00
2023-05-07T22:11:17.234Z,100.00
2023-05-07T22:13:20.715Z,100.00
2023-05-07T22:15:23.907Z,100.00
2023-05-07T22:17:26.956Z,100.00
2023-05-07T22:19:30.049Z,100.00
2023-05-07T22:21:34.737Z,100.00
2023-05-07T22:23:37.790Z,100.00
2023-05-07T22:25:40.848Z,100.00
2023-05-07T22:27:43.918Z,100.00
2023-05-07T22:29:46.975Z,100.00
2023-05-07T22:31:50.239Z,100.00
2023-05-07T22:33:53.323Z,100.00
2023-05-07T22:35:56.354Z,100.00
2023-05-07T22:38:00.767Z,100.00
2023-05-07T22:40:04.315Z,100.00
2023-05-07T22:42:08.394Z,100.00
2023-05-07T22:44:11.406Z,100.00
2023-05-07T22:46:14.748Z,100.00
2023-05-07T22:48:18.493Z,100.00
2023-05-07T22:50:21.595Z,100.00
2023-05-07T22:52:24.685Z,100.00
2023-05-07T22:54:29.175Z,100.00
2023-05-07T22:56:32.229Z,100.00
2023-05-07T22:58:35.431Z,100.00
2023-05-07T23:00:38.948Z,100.00
2023-05-07T23:02:42.043Z,100.00
2023-05-07T23:04:45.121Z,100.00
2023-05-07T23:06:48.191Z,100.00
2023-05-07T23:08:51.195Z,100.00
2023-05-07T23:10:55.646Z,100.00
2023-05-07T23:12:58.795Z,100.00
2023-05-07T23:15:01.886Z,100.00
2023-05-07T23:17:05.028Z,100.00
2023-05-07T23:19:08.120Z,100.00
2023-05-07T23:21:11.231Z,100.00
2023-05-07T23:23:14.276Z,100.00
2023-05-07T23:25:18.257Z,100.00
2023-05-07T23:27:22.656Z,100.00
2023-05-07T23:29:25.718Z,100.00
2023-05-07T23:31:28.894Z,100.00
2023-05-07T23:33:31.988Z,100.00
2023-05-07T23:35:35.191Z,100.00
2023-05-07T23:37:39.107Z,100.00
2023-05-07T23:39:42.125Z,100.00
2023-05-07T23:41:45.299Z,100.00
2023-05-07T23:43:49.683Z,100.00
2023-05-07T23:45:52.913Z,100.00
2023-05-07T23:47:56.066Z,100.00
2023-05-07T23:49:59.100Z,100.00
2023-05-07T23:52:02.178Z,100.00
2023-05-07T23:54:05.317Z,100.00
2023-05-07T23:56:08.373Z,100.00
2023-05-07T23:58:11.382Z,100.00
